Terminal Aerodrome Forecast
Issued by NWS Louisville, KY

Home | Current Version | Previous Version | Text Only | Print | Product List | Glossary On
Versions: 1 2 3 4 5 6 7 8 9 10 11 12 13
275
FTUS43 KLMK 211725
TAFBWG
TAF
KBWG 211725Z 2118/2218 26009KT P6SM SCT020 BKN050
      TEMPO 2118/2121 5SM -SHRA BKN025
     FM212300 29006KT P6SM SCT040 BKN250
     FM220600 VRB04KT P6SM FEW250
     FM221500 05005KT P6SM FEW250=

USA.gov is the U.S. government's official web portal to all federal, state and local government web resources and services.